IWG002 LEST-LEAL
Flight info
| Callsign | IWG002 |
|---|---|
| Flight time | 1h 20m |
| Altitude | 33000 |
| Route | FORNO DESAT ZMR PDT AKOKI NANDO L150 ASTRO |
| Aircraft | A20N/M-SDE2E3FGHIJ1RWXY/LB1 |
Departure
| Time | 2026-04-23 15:20 |
|---|---|
| Airport | Santiago-Rosalía de Castro Airport (LEST) |
Arrival
| Time | 2026-04-23 16:40 |
|---|---|
| Airport | Alicante-Elche Miguel Hernández Airport (LEAL) |
| Time | Latitude | Longitude | Altitude | Speed | Heading |
|---|---|---|---|---|---|
| 2026-04-23 15:06 | 42.89174 | -8.41796 | 1185 ft | 0 kts | 342° |
| 2026-04-23 15:14 | 42.89171 | -8.41794 | 1206 ft | 2 kts | 346° |
| 2026-04-23 15:14 | 42.89155 | -8.41790 | 1205 ft | 2 kts | 347° |
| 2026-04-23 15:15 | 42.89139 | -8.41785 | 1205 ft | 2 kts | 347° |
| 2026-04-23 15:15 | 42.89123 | -8.41782 | 1205 ft | 2 kts | 52° |
| 2026-04-23 15:15 | 42.89119 | -8.41790 | 1205 ft | 0 kts | 87° |
| 2026-04-23 15:16 | 42.89119 | -8.41786 | 1205 ft | 2 kts | 87° |
| 2026-04-23 15:16 | 42.89114 | -8.41736 | 1205 ft | 8 kts | 105° |
| 2026-04-23 15:17 | 42.89094 | -8.41633 | 1201 ft | 15 kts | 99° |
| 2026-04-23 15:17 | 42.89012 | -8.41539 | 1197 ft | 18 kts | 162° |
| 2026-04-23 15:17 | 42.88882 | -8.41494 | 1196 ft | 20 kts | 166° |
| 2026-04-23 15:17 | 42.88734 | -8.41443 | 1194 ft | 23 kts | 166° |
| 2026-04-23 15:18 | 42.88570 | -8.41388 | 1195 ft | 24 kts | 167° |
| 2026-04-23 15:18 | 42.88438 | -8.41345 | 1196 ft | 18 kts | 165° |
| 2026-04-23 15:18 | 42.88376 | -8.41224 | 1196 ft | 15 kts | 80° |
| 2026-04-23 15:18 | 42.88425 | -8.41133 | 1197 ft | 10 kts | 27° |
| 2026-04-23 15:19 | 42.88442 | -8.41129 | 1197 ft | 0 kts | 4° |
| 2026-04-23 15:19 | 42.88457 | -8.41130 | 1197 ft | 17 kts | 357° |
| 2026-04-23 15:19 | 42.88819 | -8.41238 | 1193 ft | 89 kts | 346° |
| 2026-04-23 15:19 | 42.89618 | -8.41500 | 1193 ft | 144 kts | 346° |
| 2026-04-23 15:20 | 42.90602 | -8.41897 | 1726 ft | 138 kts | 327° |
| 2026-04-23 15:20 | 42.91417 | -8.42565 | 2241 ft | 147 kts | 334° |
| 2026-04-23 15:20 | 42.92537 | -8.42811 | 2473 ft | 177 kts | 0° |
| 2026-04-23 15:20 | 42.93746 | -8.42656 | 3204 ft | 178 kts | 354° |
| 2026-04-23 15:21 | 42.95020 | -8.43012 | 3635 ft | 198 kts | 339° |
| 2026-04-23 15:21 | 42.96402 | -8.43674 | 4002 ft | 221 kts | 338° |
| 2026-04-23 15:21 | 42.97985 | -8.44039 | 4471 ft | 241 kts | 12° |
| 2026-04-23 15:21 | 42.99243 | -8.43252 | 5130 ft | 243 kts | 41° |
| 2026-04-23 15:22 | 43.00264 | -8.41345 | 5737 ft | 258 kts | 71° |
| 2026-04-23 15:22 | 43.00527 | -8.38914 | 6351 ft | 269 kts | 99° |
| 2026-04-23 15:22 | 42.99909 | -8.36524 | 7211 ft | 268 kts | 124° |
| 2026-04-23 15:22 | 42.98742 | -8.34531 | 8073 ft | 270 kts | 135° |
| 2026-04-23 15:23 | 42.97432 | -8.32677 | 9014 ft | 272 kts | 136° |
| 2026-04-23 15:23 | 42.96127 | -8.30790 | 9886 ft | 275 kts | 136° |
| 2026-04-23 15:23 | 42.94827 | -8.28809 | 10532 ft | 288 kts | 135° |
| 2026-04-23 15:23 | 42.93471 | -8.26635 | 10820 ft | 312 kts | 133° |
| 2026-04-23 15:24 | 42.92046 | -8.24258 | 11238 ft | 329 kts | 131° |
| 2026-04-23 15:24 | 42.90642 | -8.21805 | 12033 ft | 332 kts | 130° |
| 2026-04-23 15:24 | 42.89215 | -8.19276 | 12823 ft | 336 kts | 130° |
| 2026-04-23 15:24 | 42.87763 | -8.16764 | 13607 ft | 339 kts | 132° |
| 2026-04-23 15:25 | 42.86268 | -8.14249 | 14320 ft | 343 kts | 133° |
| 2026-04-23 15:25 | 42.84812 | -8.11797 | 15008 ft | 345 kts | 131° |
| 2026-04-23 15:25 | 42.83280 | -8.09199 | 15704 ft | 349 kts | 133° |
| 2026-04-23 15:25 | 42.81762 | -8.06658 | 16377 ft | 352 kts | 134° |
| 2026-04-23 15:26 | 42.80195 | -8.04081 | 17061 ft | 355 kts | 134° |
| 2026-04-23 15:26 | 42.78623 | -8.01469 | 17726 ft | 358 kts | 132° |
| 2026-04-23 15:26 | 42.77061 | -7.98804 | 18357 ft | 362 kts | 132° |
| 2026-04-23 15:26 | 42.75489 | -7.96086 | 18921 ft | 365 kts | 130° |
| 2026-04-23 15:27 | 42.73920 | -7.93346 | 19513 ft | 368 kts | 130° |
| 2026-04-23 15:27 | 42.72343 | -7.90636 | 20087 ft | 370 kts | 132° |
| 2026-04-23 15:27 | 42.70719 | -7.87906 | 20664 ft | 373 kts | 133° |
| 2026-04-23 15:27 | 42.69070 | -7.85161 | 21219 ft | 376 kts | 133° |
| 2026-04-23 15:28 | 42.67409 | -7.82400 | 21791 ft | 378 kts | 133° |
| 2026-04-23 15:28 | 42.65738 | -7.79619 | 22351 ft | 381 kts | 133° |
| 2026-04-23 15:28 | 42.64056 | -7.76820 | 22885 ft | 384 kts | 133° |
| 2026-04-23 15:28 | 42.62362 | -7.73999 | 23400 ft | 387 kts | 134° |
| 2026-04-23 15:29 | 42.60651 | -7.71150 | 23887 ft | 390 kts | 134° |
| 2026-04-23 15:29 | 42.58933 | -7.68292 | 24364 ft | 392 kts | 134° |
| 2026-04-23 15:29 | 42.57203 | -7.65428 | 24805 ft | 394 kts | 134° |
| 2026-04-23 15:29 | 42.55473 | -7.62527 | 25247 ft | 396 kts | 133° |
| 2026-04-23 15:30 | 42.53816 | -7.59524 | 25701 ft | 400 kts | 131° |
| 2026-04-23 15:30 | 42.52275 | -7.56384 | 26129 ft | 404 kts | 127° |
| 2026-04-23 15:30 | 42.50931 | -7.53025 | 26584 ft | 409 kts | 121° |
| 2026-04-23 15:30 | 42.49917 | -7.49410 | 27053 ft | 415 kts | 112° |
| 2026-04-23 15:31 | 42.49376 | -7.45529 | 27549 ft | 423 kts | 101° |
| 2026-04-23 15:31 | 42.49471 | -7.41527 | 28077 ft | 431 kts | 87° |
| 2026-04-23 15:31 | 42.50343 | -7.37614 | 28641 ft | 439 kts | 70° |
| 2026-04-23 15:31 | 42.52079 | -7.34179 | 29254 ft | 446 kts | 50° |
| 2026-04-23 15:32 | 42.54610 | -7.31743 | 29897 ft | 449 kts | 26° |
| 2026-04-23 15:32 | 42.57630 | -7.30811 | 30435 ft | 445 kts | 360° |
| 2026-04-23 15:32 | 42.60618 | -7.31555 | 30929 ft | 432 kts | 333° |
| 2026-04-23 15:32 | 42.63036 | -7.33790 | 31400 ft | 412 kts | 306° |
| 2026-04-23 15:33 | 42.64438 | -7.36960 | 31820 ft | 386 kts | 279° |
| 2026-04-23 15:33 | 42.64649 | -7.40419 | 32196 ft | 359 kts | 252° |
| 2026-04-23 15:33 | 42.63702 | -7.43464 | 32333 ft | 342 kts | 225° |
| 2026-04-23 15:33 | 42.61888 | -7.45379 | 32368 ft | 332 kts | 192° |
| 2026-04-23 15:34 | 42.59619 | -7.45869 | 32125 ft | 340 kts | 170° |
| 2026-04-23 15:34 | 42.57393 | -7.44669 | 32068 ft | 352 kts | 141° |
| 2026-04-23 15:34 | 42.55652 | -7.42284 | 32203 ft | 360 kts | 129° |
| 2026-04-23 15:34 | 42.54236 | -7.39475 | 32483 ft | 363 kts | 127° |
| 2026-04-23 15:35 | 42.52689 | -7.36839 | 32520 ft | 362 kts | 140° |
| 2026-04-23 15:35 | 42.49100 | -7.31861 | 32632 ft | 376 kts | 138° |
| 2026-04-23 15:36 | 42.45627 | -7.26383 | 32754 ft | 392 kts | 134° |
| 2026-04-23 15:36 | 42.42199 | -7.20440 | 32885 ft | 407 kts | 132° |
| 2026-04-23 15:37 | 42.38768 | -7.14232 | 32948 ft | 421 kts | 132° |
| 2026-04-23 15:37 | 42.35772 | -7.08849 | 32954 ft | 431 kts | 132° |
| 2026-04-23 15:38 | 42.31577 | -7.01335 | 32951 ft | 430 kts | 132° |
| 2026-04-23 15:38 | 42.27966 | -6.94876 | 32958 ft | 430 kts | 132° |
| 2026-04-23 15:39 | 42.24359 | -6.88438 | 32952 ft | 429 kts | 132° |
| 2026-04-23 15:39 | 42.20756 | -6.82021 | 32960 ft | 430 kts | 132° |
| 2026-04-23 15:40 | 42.17134 | -6.75582 | 32969 ft | 431 kts | 132° |
| 2026-04-23 15:40 | 42.13517 | -6.69175 | 32972 ft | 431 kts | 132° |
| 2026-04-23 15:41 | 42.09879 | -6.62741 | 32976 ft | 431 kts | 132° |
| 2026-04-23 15:41 | 42.06534 | -6.56071 | 32946 ft | 436 kts | 120° |
| 2026-04-23 15:42 | 42.04665 | -6.48194 | 32865 ft | 451 kts | 99° |
| 2026-04-23 15:42 | 42.03946 | -6.44123 | 32832 ft | 442 kts | 111° |
| 2026-04-23 15:42 | 42.02872 | -6.40288 | 33091 ft | 435 kts | 114° |
| 2026-04-23 15:42 | 42.01511 | -6.36671 | 32997 ft | 434 kts | 127° |
| 2026-04-23 15:43 | 41.99657 | -6.33520 | 32956 ft | 428 kts | 139° |
| 2026-04-23 15:43 | 41.94831 | -6.29072 | 32973 ft | 418 kts | 159° |
| 2026-04-23 15:44 | 41.89704 | -6.25383 | 32982 ft | 425 kts | 141° |
| 2026-04-23 15:44 | 41.85543 | -6.19630 | 32971 ft | 433 kts | 132° |
| 2026-04-23 15:45 | 41.81807 | -6.13372 | 32969 ft | 432 kts | 131° |
| 2026-04-23 15:45 | 41.78104 | -6.07028 | 32967 ft | 431 kts | 133° |
| 2026-04-23 15:46 | 41.74405 | -6.00724 | 32964 ft | 432 kts | 131° |
| 2026-04-23 15:46 | 41.70772 | -5.94299 | 32970 ft | 432 kts | 132° |
| 2026-04-23 15:47 | 41.67074 | -5.88011 | 32969 ft | 432 kts | 133° |
| 2026-04-23 15:47 | 41.63337 | -5.81729 | 32971 ft | 432 kts | 133° |
| 2026-04-23 15:48 | 41.59613 | -5.75402 | 32970 ft | 433 kts | 133° |
| 2026-04-23 15:48 | 41.55931 | -5.69078 | 32977 ft | 434 kts | 132° |
| 2026-04-23 15:49 | 41.52228 | -5.62669 | 32984 ft | 435 kts | 131° |
| 2026-04-23 15:49 | 41.48686 | -5.56080 | 32986 ft | 438 kts | 129° |
| 2026-04-23 15:50 | 41.45182 | -5.49495 | 32996 ft | 439 kts | 130° |
| 2026-04-23 15:50 | 41.41625 | -5.42871 | 33000 ft | 439 kts | 130° |
| 2026-04-23 15:51 | 41.38047 | -5.36255 | 32998 ft | 440 kts | 130° |
| 2026-04-23 15:51 | 41.34458 | -5.29640 | 33001 ft | 440 kts | 130° |
| 2026-04-23 15:52 | 41.30878 | -5.23030 | 32998 ft | 441 kts | 130° |
| 2026-04-23 15:52 | 41.27269 | -5.16436 | 32994 ft | 441 kts | 130° |
| 2026-04-23 15:53 | 41.23676 | -5.09880 | 32993 ft | 441 kts | 130° |
| 2026-04-23 15:53 | 41.20069 | -5.03283 | 32988 ft | 441 kts | 130° |
| 2026-04-23 15:54 | 41.16459 | -4.96690 | 32989 ft | 441 kts | 130° |
| 2026-04-23 15:54 | 41.12844 | -4.90101 | 32983 ft | 441 kts | 130° |
| 2026-04-23 15:55 | 41.09231 | -4.83531 | 32978 ft | 441 kts | 130° |
| 2026-04-23 15:55 | 41.06216 | -4.78062 | 32977 ft | 441 kts | 130° |
| 2026-04-23 15:56 | 41.02584 | -4.71484 | 32980 ft | 442 kts | 130° |
| 2026-04-23 15:56 | 40.98942 | -4.64904 | 32982 ft | 443 kts | 130° |
| 2026-04-23 15:57 | 40.95320 | -4.58376 | 32991 ft | 443 kts | 130° |
| 2026-04-23 15:57 | 40.91666 | -4.51803 | 33000 ft | 444 kts | 130° |
| 2026-04-23 15:58 | 40.87995 | -4.45213 | 33004 ft | 444 kts | 130° |
| 2026-04-23 15:58 | 40.84330 | -4.38650 | 33017 ft | 444 kts | 130° |
| 2026-04-23 15:59 | 40.80656 | -4.32084 | 33024 ft | 444 kts | 130° |
| 2026-04-23 15:59 | 40.76982 | -4.25534 | 33024 ft | 444 kts | 130° |
| 2026-04-23 16:00 | 40.73299 | -4.18982 | 33029 ft | 444 kts | 130° |
| 2026-04-23 16:00 | 40.69616 | -4.12442 | 33027 ft | 443 kts | 130° |
| 2026-04-23 16:01 | 40.66022 | -4.06072 | 33033 ft | 444 kts | 130° |
| 2026-04-23 16:01 | 40.62329 | -3.99542 | 33034 ft | 444 kts | 130° |
| 2026-04-23 16:02 | 40.58632 | -3.93019 | 33035 ft | 444 kts | 130° |
| 2026-04-23 16:02 | 40.54952 | -3.86541 | 33035 ft | 445 kts | 130° |
| 2026-04-23 16:03 | 40.51229 | -3.80001 | 33030 ft | 445 kts | 130° |
| 2026-04-23 16:03 | 40.47510 | -3.73482 | 32992 ft | 446 kts | 130° |
| 2026-04-23 16:04 | 40.43831 | -3.67047 | 32995 ft | 446 kts | 130° |
| 2026-04-23 16:04 | 40.40094 | -3.60524 | 32993 ft | 447 kts | 130° |
| 2026-04-23 16:05 | 40.36996 | -3.55127 | 32993 ft | 447 kts | 130° |
| 2026-04-23 16:05 | 40.32622 | -3.47526 | 32993 ft | 449 kts | 130° |
| 2026-04-23 16:06 | 40.28851 | -3.40983 | 32995 ft | 449 kts | 130° |
| 2026-04-23 16:06 | 40.25515 | -3.34041 | 32993 ft | 454 kts | 118° |
| 2026-04-23 16:07 | 40.23378 | -3.26225 | 32991 ft | 458 kts | 108° |
| 2026-04-23 16:07 | 40.21646 | -3.18271 | 32996 ft | 458 kts | 108° |
| 2026-04-23 16:08 | 40.19863 | -3.10193 | 33000 ft | 458 kts | 109° |
| 2026-04-23 16:08 | 40.18091 | -3.02208 | 33000 ft | 459 kts | 108° |
| 2026-04-23 16:09 | 40.16303 | -2.94185 | 33005 ft | 460 kts | 108° |
| 2026-04-23 16:09 | 40.14507 | -2.86150 | 33006 ft | 460 kts | 108° |
| 2026-04-23 16:10 | 40.12705 | -2.78114 | 33023 ft | 461 kts | 108° |
| 2026-04-23 16:10 | 40.10898 | -2.70091 | 33016 ft | 462 kts | 108° |
| 2026-04-23 16:11 | 40.09077 | -2.62031 | 33019 ft | 462 kts | 108° |
| 2026-04-23 16:11 | 40.07248 | -2.53973 | 33024 ft | 463 kts | 108° |
| 2026-04-23 16:12 | 40.05405 | -2.45873 | 33037 ft | 464 kts | 108° |
| 2026-04-23 16:12 | 40.03569 | -2.37840 | 33029 ft | 464 kts | 109° |
| 2026-04-23 16:13 | 40.01717 | -2.29758 | 33039 ft | 465 kts | 109° |
| 2026-04-23 16:13 | 39.98165 | -2.18089 | 33066 ft | 460 kts | 128° |
| 2026-04-23 16:14 | 39.96082 | -2.14943 | 33057 ft | 456 kts | 140° |
| 2026-04-23 16:14 | 39.93606 | -2.12371 | 33072 ft | 454 kts | 146° |
| 2026-04-23 16:14 | 39.88503 | -2.07500 | 33063 ft | 455 kts | 146° |
| 2026-04-23 16:15 | 39.83393 | -2.02606 | 33058 ft | 455 kts | 146° |
| 2026-04-23 16:15 | 39.78317 | -1.97755 | 33083 ft | 455 kts | 146° |
| 2026-04-23 16:16 | 39.73196 | -1.92872 | 33075 ft | 456 kts | 146° |
| 2026-04-23 16:16 | 39.68086 | -1.88010 | 33080 ft | 456 kts | 146° |
| 2026-04-23 16:17 | 39.62958 | -1.83135 | 33087 ft | 457 kts | 146° |
| 2026-04-23 16:17 | 39.57815 | -1.78256 | 33062 ft | 458 kts | 146° |
| 2026-04-23 16:18 | 39.55233 | -1.75810 | 32763 ft | 459 kts | 146° |
| 2026-04-23 16:18 | 39.52652 | -1.73369 | 32132 ft | 461 kts | 146° |
| 2026-04-23 16:18 | 39.50044 | -1.70906 | 31204 ft | 467 kts | 146° |
| 2026-04-23 16:18 | 39.47406 | -1.68417 | 30163 ft | 473 kts | 146° |
| 2026-04-23 16:19 | 39.44735 | -1.65898 | 29298 ft | 473 kts | 146° |
| 2026-04-23 16:19 | 39.42093 | -1.63406 | 28777 ft | 465 kts | 146° |
| 2026-04-23 16:19 | 39.39508 | -1.60969 | 28413 ft | 454 kts | 146° |
| 2026-04-23 16:19 | 39.36974 | -1.58582 | 27830 ft | 449 kts | 146° |
| 2026-04-23 16:20 | 39.34461 | -1.56222 | 27257 ft | 444 kts | 146° |
| 2026-04-23 16:20 | 39.31999 | -1.53910 | 26705 ft | 439 kts | 146° |
| 2026-04-23 16:20 | 39.29518 | -1.51583 | 26148 ft | 435 kts | 146° |
| 2026-04-23 16:20 | 39.27100 | -1.49317 | 25526 ft | 434 kts | 146° |
| 2026-04-23 16:21 | 39.24672 | -1.47043 | 25046 ft | 428 kts | 146° |
| 2026-04-23 16:21 | 39.22259 | -1.44785 | 24432 ft | 427 kts | 146° |
| 2026-04-23 16:21 | 39.19857 | -1.42539 | 23859 ft | 425 kts | 146° |
| 2026-04-23 16:21 | 39.17470 | -1.40308 | 23309 ft | 422 kts | 146° |
| 2026-04-23 16:22 | 39.15103 | -1.38098 | 22744 ft | 418 kts | 146° |
| 2026-04-23 16:22 | 39.12763 | -1.35914 | 22195 ft | 414 kts | 146° |
| 2026-04-23 16:22 | 39.10438 | -1.33746 | 21638 ft | 410 kts | 147° |
| 2026-04-23 16:22 | 39.08140 | -1.31605 | 21093 ft | 406 kts | 147° |
| 2026-04-23 16:23 | 39.05862 | -1.29485 | 20496 ft | 404 kts | 147° |
| 2026-04-23 16:23 | 39.03591 | -1.27373 | 20014 ft | 400 kts | 147° |
| 2026-04-23 16:23 | 39.01362 | -1.25302 | 19444 ft | 398 kts | 147° |
| 2026-04-23 16:23 | 38.99126 | -1.23228 | 18916 ft | 395 kts | 147° |
| 2026-04-23 16:24 | 38.96898 | -1.21159 | 18444 ft | 391 kts | 146° |
| 2026-04-23 16:24 | 38.94721 | -1.19117 | 17971 ft | 385 kts | 146° |
| 2026-04-23 16:24 | 38.92555 | -1.17100 | 17431 ft | 382 kts | 147° |
| 2026-04-23 16:24 | 38.90414 | -1.15121 | 16922 ft | 378 kts | 147° |
| 2026-04-23 16:25 | 38.88284 | -1.13156 | 16404 ft | 374 kts | 147° |
| 2026-04-23 16:25 | 38.86182 | -1.11218 | 15906 ft | 371 kts | 147° |
| 2026-04-23 16:25 | 38.84093 | -1.09293 | 15398 ft | 367 kts | 147° |
| 2026-04-23 16:25 | 38.82061 | -1.07417 | 14932 ft | 364 kts | 147° |
| 2026-04-23 16:26 | 38.80012 | -1.05522 | 14455 ft | 361 kts | 147° |
| 2026-04-23 16:26 | 38.77995 | -1.03657 | 14006 ft | 357 kts | 147° |
| 2026-04-23 16:26 | 38.75983 | -1.01801 | 13488 ft | 354 kts | 147° |
| 2026-04-23 16:26 | 38.73990 | -0.99966 | 12962 ft | 352 kts | 147° |
| 2026-04-23 16:27 | 38.72010 | -0.98147 | 12443 ft | 349 kts | 147° |
| 2026-04-23 16:27 | 38.70051 | -0.96354 | 12108 ft | 341 kts | 147° |
| 2026-04-23 16:27 | 38.68151 | -0.94625 | 11970 ft | 328 kts | 148° |
| 2026-04-23 16:27 | 38.66353 | -0.93000 | 11850 ft | 315 kts | 147° |
| 2026-04-23 16:28 | 38.64610 | -0.91392 | 11734 ft | 302 kts | 146° |
| 2026-04-23 16:28 | 38.62939 | -0.89845 | 11634 ft | 290 kts | 147° |
| 2026-04-23 16:28 | 38.61333 | -0.88376 | 11521 ft | 278 kts | 148° |
| 2026-04-23 16:28 | 38.59784 | -0.86967 | 11416 ft | 266 kts | 148° |
| 2026-04-23 16:29 | 38.58310 | -0.85627 | 11175 ft | 260 kts | 148° |
| 2026-04-23 16:29 | 38.56806 | -0.84339 | 10827 ft | 257 kts | 157° |
| 2026-04-23 16:29 | 38.56254 | -0.84035 | 10708 ft | 255 kts | 165° |
| 2026-04-23 16:29 | 38.54687 | -0.83703 | 10373 ft | 250 kts | 184° |
| 2026-04-23 16:30 | 38.53009 | -0.84134 | 10028 ft | 246 kts | 204° |
| 2026-04-23 16:30 | 38.51579 | -0.85300 | 9655 ft | 244 kts | 224° |
| 2026-04-23 16:30 | 38.50427 | -0.86855 | 9301 ft | 243 kts | 225° |
| 2026-04-23 16:30 | 38.49217 | -0.88364 | 8953 ft | 242 kts | 222° |
| 2026-04-23 16:31 | 38.47952 | -0.89779 | 8629 ft | 241 kts | 219° |
| 2026-04-23 16:31 | 38.46640 | -0.91091 | 8352 ft | 238 kts | 216° |
| 2026-04-23 16:31 | 38.45282 | -0.92313 | 8006 ft | 238 kts | 213° |
| 2026-04-23 16:31 | 38.43902 | -0.93423 | 7671 ft | 238 kts | 211° |
| 2026-04-23 16:32 | 38.42458 | -0.94462 | 7356 ft | 237 kts | 208° |
| 2026-04-23 16:32 | 38.40982 | -0.95400 | 7031 ft | 237 kts | 205° |
| 2026-04-23 16:32 | 38.39472 | -0.96241 | 6789 ft | 233 kts | 203° |
| 2026-04-23 16:32 | 38.38003 | -0.96948 | 6670 ft | 223 kts | 196° |
| 2026-04-23 16:33 | 38.36511 | -0.96973 | 6566 ft | 212 kts | 164° |
| 2026-04-23 16:33 | 38.35220 | -0.96151 | 6494 ft | 204 kts | 146° |
| 2026-04-23 16:33 | 38.34224 | -0.94891 | 6327 ft | 200 kts | 129° |
| 2026-04-23 16:33 | 38.33582 | -0.93344 | 6188 ft | 194 kts | 113° |
| 2026-04-23 16:34 | 38.33201 | -0.91619 | 6125 ft | 205 kts | 105° |
| 2026-04-23 16:34 | 38.32946 | -0.89877 | 6146 ft | 203 kts | 103° |
| 2026-04-23 16:34 | 38.32700 | -0.88055 | 6131 ft | 208 kts | 103° |
| 2026-04-23 16:34 | 38.32454 | -0.86272 | 6129 ft | 200 kts | 103° |
| 2026-04-23 16:35 | 38.32212 | -0.84524 | 6131 ft | 204 kts | 100° |
| 2026-04-23 16:35 | 38.32066 | -0.83333 | 6084 ft | 206 kts | 99° |
| 2026-04-23 16:35 | 38.31760 | -0.80940 | 5929 ft | 199 kts | 101° |
| 2026-04-23 16:35 | 38.31546 | -0.79765 | 5605 ft | 208 kts | 97° |
| 2026-04-23 16:36 | 38.31131 | -0.78031 | 5205 ft | 201 kts | 98° |
| 2026-04-23 16:36 | 38.30546 | -0.75843 | 4696 ft | 191 kts | 105° |
| 2026-04-23 16:36 | 38.30327 | -0.74762 | 4420 ft | 184 kts | 99° |
| 2026-04-23 16:36 | 38.30203 | -0.73189 | 3986 ft | 176 kts | 83° |
| 2026-04-23 16:37 | 38.30413 | -0.71724 | 3590 ft | 168 kts | 89° |
| 2026-04-23 16:37 | 38.30233 | -0.70217 | 2831 ft | 177 kts | 97° |
| 2026-04-23 16:37 | 38.30016 | -0.68676 | 2329 ft | 172 kts | 100° |
| 2026-04-23 16:37 | 38.29809 | -0.67252 | 1977 ft | 165 kts | 97° |
| 2026-04-23 16:38 | 38.29621 | -0.65871 | 1642 ft | 154 kts | 97° |
| 2026-04-23 16:38 | 38.29439 | -0.64593 | 1331 ft | 137 kts | 98° |
| 2026-04-23 16:38 | 38.29280 | -0.63461 | 1121 ft | 123 kts | 98° |
| 2026-04-23 16:38 | 38.29138 | -0.62424 | 962 ft | 117 kts | 97° |
| 2026-04-23 16:39 | 38.29018 | -0.61552 | 828 ft | 116 kts | 98° |
| 2026-04-23 16:39 | 38.28878 | -0.60553 | 668 ft | 113 kts | 99° |
| 2026-04-23 16:39 | 38.28732 | -0.59499 | 505 ft | 120 kts | 96° |
| 2026-04-23 16:39 | 38.28588 | -0.58477 | 355 ft | 118 kts | 98° |
| 2026-04-23 16:40 | 38.28445 | -0.57441 | 199 ft | 118 kts | 98° |
| 2026-04-23 16:40 | 38.28316 | -0.56510 | 121 ft | 89 kts | 100° |
| 2026-04-23 16:40 | 38.28258 | -0.56138 | 111 ft | 26 kts | 99° |
| 2026-04-23 16:40 | 38.28233 | -0.55924 | 104 ft | 17 kts | 103° |
| 2026-04-23 16:41 | 38.28221 | -0.55754 | 98 ft | 21 kts | 89° |
| 2026-04-23 16:41 | 38.28233 | -0.55569 | 91 ft | 18 kts | 73° |
| 2026-04-23 16:41 | 38.28272 | -0.55451 | 91 ft | 15 kts | 69° |
| 2026-04-23 16:41 | 38.28309 | -0.55318 | 87 ft | 18 kts | 69° |
| 2026-04-23 16:42 | 38.28379 | -0.55183 | 87 ft | 18 kts | 38° |
| 2026-04-23 16:42 | 38.28457 | -0.55180 | 91 ft | 10 kts | 350° |
| 2026-04-23 16:42 | 38.28523 | -0.55173 | 93 ft | 0 kts | 10° |